sensor_id;sensor_type;location;lat;lon;timestamp;P1;durP1;ratioP1;P2;durP2;ratioP2
74074;SDS011;62428;51.412;5.432;2022-12-07T00:01:29;11.20;;;6.10;;
74074;SDS011;62428;51.412;5.432;2022-12-07T00:03:59;12.83;;;6.27;;
74074;SDS011;62428;51.412;5.432;2022-12-07T00:06:29;10.55;;;5.57;;
74074;SDS011;62428;51.412;5.432;2022-12-07T00:08:58;11.38;;;5.05;;
74074;SDS011;62428;51.412;5.432;2022-12-07T00:11:23;15.53;;;5.30;;
74074;SDS011;62428;51.412;5.432;2022-12-07T00:13:53;10.70;;;4.95;;
74074;SDS011;62428;51.412;5.432;2022-12-07T00:16:24;8.85;;;5.03;;
74074;SDS011;62428;51.412;5.432;2022-12-07T00:18:52;11.15;;;6.13;;
74074;SDS011;62428;51.412;5.432;2022-12-07T00:21:19;11.73;;;5.77;;
74074;SDS011;62428;51.412;5.432;2022-12-07T00:23:49;11.38;;;5.90;;
74074;SDS011;62428;51.412;5.432;2022-12-07T00:26:17;14.15;;;6.50;;
74074;SDS011;62428;51.412;5.432;2022-12-07T00:28:48;10.85;;;6.97;;
74074;SDS011;62428;51.412;5.432;2022-12-07T00:31:15;15.77;;;8.03;;
74074;SDS011;62428;51.412;5.432;2022-12-07T00:33:42;13.95;;;7.75;;
74074;SDS011;62428;51.412;5.432;2022-12-07T00:36:14;10.52;;;6.85;;
74074;SDS011;62428;51.412;5.432;2022-12-07T00:38:41;14.70;;;7.32;;
74074;SDS011;62428;51.412;5.432;2022-12-07T00:41:09;11.77;;;7.23;;
74074;SDS011;62428;51.412;5.432;2022-12-07T00:43:40;16.60;;;7.32;;
74074;SDS011;62428;51.412;5.432;2022-12-07T00:46:07;11.35;;;7.18;;
74074;SDS011;62428;51.412;5.432;2022-12-07T00:48:32;7.93;;;5.67;;
74074;SDS011;62428;51.412;5.432;2022-12-07T00:50:58;8.30;;;5.20;;
74074;SDS011;62428;51.412;5.432;2022-12-07T00:53:25;8.27;;;5.50;;
74074;SDS011;62428;51.412;5.432;2022-12-07T00:55:51;9.85;;;4.72;;
74074;SDS011;62428;51.412;5.432;2022-12-07T00:58:17;11.37;;;4.63;;
74074;SDS011;62428;51.412;5.432;2022-12-07T01:00:43;9.75;;;4.18;;
74074;SDS011;62428;51.412;5.432;2022-12-07T01:03:09;7.32;;;4.63;;
74074;SDS011;62428;51.412;5.432;2022-12-07T01:05:36;9.80;;;5.57;;
74074;SDS011;62428;51.412;5.432;2022-12-07T01:08:02;13.52;;;6.28;;
74074;SDS011;62428;51.412;5.432;2022-12-07T01:10:27;11.83;;;6.10;;
74074;SDS011;62428;51.412;5.432;2022-12-07T01:12:55;10.85;;;5.40;;
74074;SDS011;62428;51.412;5.432;2022-12-07T01:15:20;9.60;;;5.03;;
74074;SDS011;62428;51.412;5.432;2022-12-07T01:17:45;10.17;;;4.83;;
74074;SDS011;62428;51.412;5.432;2022-12-07T01:20:11;14.53;;;5.60;;
74074;SDS011;62428;51.412;5.432;2022-12-07T01:22:37;14.95;;;5.93;;
74074;SDS011;62428;51.412;5.432;2022-12-07T01:25:04;8.65;;;5.35;;
74074;SDS011;62428;51.412;5.432;2022-12-07T01:27:30;14.30;;;5.40;;
74074;SDS011;62428;51.412;5.432;2022-12-07T01:29:55;10.47;;;5.43;;
74074;SDS011;62428;51.412;5.432;2022-12-07T01:32:21;14.17;;;6.30;;
74074;SDS011;62428;51.412;5.432;2022-12-07T01:34:47;8.23;;;5.40;;
74074;SDS011;62428;51.412;5.432;2022-12-07T01:37:13;8.93;;;4.75;;
74074;SDS011;62428;51.412;5.432;2022-12-07T01:39:38;9.13;;;4.67;;
74074;SDS011;62428;51.412;5.432;2022-12-07T01:42:03;9.73;;;4.90;;
74074;SDS011;62428;51.412;5.432;2022-12-07T01:44:29;6.93;;;4.13;;
74074;SDS011;62428;51.412;5.432;2022-12-07T01:46:57;8.43;;;4.97;;
74074;SDS011;62428;51.412;5.432;2022-12-07T01:49:34;7.93;;;5.25;;
74074;SDS011;62428;51.412;5.432;2022-12-07T01:52:03;9.00;;;5.17;;
74074;SDS011;62428;51.412;5.432;2022-12-07T01:54:38;9.98;;;5.47;;
74074;SDS011;62428;51.412;5.432;2022-12-07T01:57:04;8.77;;;5.03;;
74074;SDS011;62428;51.412;5.432;2022-12-07T01:59:32;11.82;;;5.05;;
74074;SDS011;62428;51.412;5.432;2022-12-07T02:01:58;5.23;;;4.30;;
74074;SDS011;62428;51.412;5.432;2022-12-07T02:04:26;8.38;;;4.55;;
74074;SDS011;62428;51.412;5.432;2022-12-07T02:06:52;10.32;;;5.60;;
74074;SDS011;62428;51.412;5.432;2022-12-07T02:09:19;9.73;;;5.37;;
74074;SDS011;62428;51.412;5.432;2022-12-07T02:11:44;7.28;;;4.10;;
74074;SDS011;62428;51.412;5.432;2022-12-07T02:14:10;8.03;;;3.77;;
74074;SDS011;62428;51.412;5.432;2022-12-07T02:31:08;12.80;;;3.78;;
74074;SDS011;62428;51.412;5.432;2022-12-07T02:33:43;9.68;;;4.30;;
74074;SDS011;62428;51.412;5.432;2022-12-07T02:36:16;9.68;;;3.72;;
74074;SDS011;62428;51.412;5.432;2022-12-07T02:41:26;11.65;;;4.15;;
74074;SDS011;62428;51.412;5.432;2022-12-07T02:44:00;12.10;;;3.60;;
74074;SDS011;62428;51.412;5.432;2022-12-07T02:46:34;7.70;;;3.60;;
74074;SDS011;62428;51.412;5.432;2022-12-07T02:49:03;6.97;;;3.90;;
74074;SDS011;62428;51.412;5.432;2022-12-07T02:51:30;8.60;;;4.83;;
74074;SDS011;62428;51.412;5.432;2022-12-07T02:53:56;10.02;;;4.78;;
74074;SDS011;62428;51.412;5.432;2022-12-07T03:04:39;8.45;;;3.78;;
74074;SDS011;62428;51.412;5.432;2022-12-07T03:13:09;8.35;;;5.32;;
74074;SDS011;62428;51.412;5.432;2022-12-07T03:15:46;8.48;;;5.22;;
74074;SDS011;62428;51.412;5.432;2022-12-07T03:18:16;8.53;;;4.73;;
74074;SDS011;62428;51.412;5.432;2022-12-07T03:20:45;8.98;;;4.40;;
74074;SDS011;62428;51.412;5.432;2022-12-07T03:23:14;11.70;;;5.10;;
74074;SDS011;62428;51.412;5.432;2022-12-07T03:25:44;8.45;;;4.30;;
74074;SDS011;62428;51.412;5.432;2022-12-07T03:28:14;11.43;;;4.45;;
74074;SDS011;62428;51.412;5.432;2022-12-07T03:30:48;10.63;;;4.77;;
74074;SDS011;62428;51.412;5.432;2022-12-07T03:33:20;8.05;;;4.88;;
74074;SDS011;62428;51.412;5.432;2022-12-07T03:35:56;6.65;;;4.80;;
74074;SDS011;62428;51.412;5.432;2022-12-07T03:38:26;9.23;;;5.10;;
74074;SDS011;62428;51.412;5.432;2022-12-07T03:41:02;8.15;;;4.80;;
74074;SDS011;62428;51.412;5.432;2022-12-07T03:43:32;8.23;;;4.90;;
74074;SDS011;62428;51.412;5.432;2022-12-07T03:48:34;8.38;;;4.97;;
74074;SDS011;62428;51.412;5.432;2022-12-07T03:54:18;9.07;;;4.60;;
74074;SDS011;62428;51.412;5.432;2022-12-07T03:56:48;8.65;;;4.28;;
74074;SDS011;62428;51.412;5.432;2022-12-07T03:59:15;10.13;;;4.20;;
74074;SDS011;62428;51.412;5.432;2022-12-07T04:01:45;11.57;;;4.55;;
74074;SDS011;62428;51.412;5.432;2022-12-07T04:04:18;9.43;;;3.40;;
74074;SDS011;62428;51.412;5.432;2022-12-07T04:06:43;4.80;;;2.90;;
74074;SDS011;62428;51.412;5.432;2022-12-07T04:09:09;5.17;;;2.87;;
74074;SDS011;62428;51.412;5.432;2022-12-07T04:11:34;6.67;;;2.93;;
74074;SDS011;62428;51.412;5.432;2022-12-07T04:13:59;5.90;;;3.00;;
74074;SDS011;62428;51.412;5.432;2022-12-07T04:16:43;6.45;;;3.33;;
74074;SDS011;62428;51.412;5.432;2022-12-07T04:19:09;9.13;;;3.30;;
74074;SDS011;62428;51.412;5.432;2022-12-07T04:21:35;6.47;;;3.37;;
74074;SDS011;62428;51.412;5.432;2022-12-07T04:24:00;5.17;;;3.17;;
74074;SDS011;62428;51.412;5.432;2022-12-07T04:26:25;11.63;;;3.38;;
74074;SDS011;62428;51.412;5.432;2022-12-07T04:28:51;7.55;;;3.63;;
74074;SDS011;62428;51.412;5.432;2022-12-07T04:31:16;9.00;;;3.73;;
74074;SDS011;62428;51.412;5.432;2022-12-07T04:33:41;8.73;;;4.87;;
74074;SDS011;62428;51.412;5.432;2022-12-07T04:36:07;15.03;;;5.67;;
74074;SDS011;62428;51.412;5.432;2022-12-07T04:38:32;8.40;;;4.33;;
74074;SDS011;62428;51.412;5.432;2022-12-07T04:40:57;7.40;;;4.20;;
74074;SDS011;62428;51.412;5.432;2022-12-07T04:43:23;8.07;;;3.97;;
74074;SDS011;62428;51.412;5.432;2022-12-07T04:45:48;9.25;;;4.20;;
74074;SDS011;62428;51.412;5.432;2022-12-07T04:48:14;8.13;;;3.90;;
74074;SDS011;62428;51.412;5.432;2022-12-07T04:50:40;8.43;;;3.70;;
74074;SDS011;62428;51.412;5.432;2022-12-07T04:53:05;8.30;;;3.70;;
74074;SDS011;62428;51.412;5.432;2022-12-07T04:55:30;5.67;;;3.90;;
74074;SDS011;62428;51.412;5.432;2022-12-07T04:57:56;12.53;;;4.07;;
74074;SDS011;62428;51.412;5.432;2022-12-07T05:00:21;10.37;;;4.17;;
74074;SDS011;62428;51.412;5.432;2022-12-07T05:02:47;10.50;;;4.40;;
74074;SDS011;62428;51.412;5.432;2022-12-07T05:05:12;11.00;;;3.95;;
74074;SDS011;62428;51.412;5.432;2022-12-07T05:07:38;10.30;;;4.43;;
74074;SDS011;62428;51.412;5.432;2022-12-07T05:10:03;8.47;;;3.90;;
74074;SDS011;62428;51.412;5.432;2022-12-07T05:12:29;12.35;;;3.45;;
74074;SDS011;62428;51.412;5.432;2022-12-07T05:14:54;8.93;;;3.00;;
74074;SDS011;62428;51.412;5.432;2022-12-07T05:17:20;10.03;;;3.63;;
74074;SDS011;62428;51.412;5.432;2022-12-07T05:19:45;8.30;;;3.97;;
74074;SDS011;62428;51.412;5.432;2022-12-07T05:22:10;10.50;;;3.47;;
74074;SDS011;62428;51.412;5.432;2022-12-07T05:24:36;8.23;;;2.80;;
74074;SDS011;62428;51.412;5.432;2022-12-07T05:27:01;4.70;;;2.28;;
74074;SDS011;62428;51.412;5.432;2022-12-07T05:29:26;6.23;;;2.53;;
74074;SDS011;62428;51.412;5.432;2022-12-07T05:31:52;7.90;;;2.63;;
74074;SDS011;62428;51.412;5.432;2022-12-07T05:34:17;8.60;;;2.93;;
74074;SDS011;62428;51.412;5.432;2022-12-07T05:36:42;6.30;;;2.33;;
74074;SDS011;62428;51.412;5.432;2022-12-07T05:39:08;6.30;;;2.50;;
74074;SDS011;62428;51.412;5.432;2022-12-07T05:41:33;7.73;;;3.30;;
74074;SDS011;62428;51.412;5.432;2022-12-07T05:44:17;7.45;;;3.35;;
74074;SDS011;62428;51.412;5.432;2022-12-07T05:46:43;12.20;;;3.10;;
74074;SDS011;62428;51.412;5.432;2022-12-07T05:49:08;6.07;;;2.28;;
74074;SDS011;62428;51.412;5.432;2022-12-07T05:51:33;5.47;;;2.50;;
74074;SDS011;62428;51.412;5.432;2022-12-07T05:53:59;5.73;;;2.10;;
74074;SDS011;62428;51.412;5.432;2022-12-07T05:56:24;6.50;;;2.13;;
74074;SDS011;62428;51.412;5.432;2022-12-07T05:58:51;5.00;;;2.58;;
74074;SDS011;62428;51.412;5.432;2022-12-07T06:01:35;6.13;;;2.67;;
74074;SDS011;62428;51.412;5.432;2022-12-07T06:04:00;9.57;;;2.97;;
74074;SDS011;62428;51.412;5.432;2022-12-07T06:06:26;5.50;;;2.40;;
74074;SDS011;62428;51.412;5.432;2022-12-07T06:08:51;7.37;;;2.43;;
74074;SDS011;62428;51.412;5.432;2022-12-07T06:11:16;10.00;;;2.70;;
74074;SDS011;62428;51.412;5.432;2022-12-07T06:14:00;6.00;;;2.58;;
74074;SDS011;62428;51.412;5.432;2022-12-07T06:16:26;6.32;;;2.25;;
74074;SDS011;62428;51.412;5.432;2022-12-07T06:18:51;6.65;;;2.58;;
74074;SDS011;62428;51.412;5.432;2022-12-07T06:21:17;6.27;;;2.30;;
74074;SDS011;62428;51.412;5.432;2022-12-07T06:23:42;8.07;;;3.10;;
74074;SDS011;62428;51.412;5.432;2022-12-07T06:26:07;7.67;;;3.10;;
74074;SDS011;62428;51.412;5.432;2022-12-07T06:28:33;9.87;;;2.70;;
74074;SDS011;62428;51.412;5.432;2022-12-07T06:30:58;10.13;;;3.10;;
74074;SDS011;62428;51.412;5.432;2022-12-07T06:33:25;6.80;;;3.17;;
74074;SDS011;62428;51.412;5.432;2022-12-07T06:35:50;5.50;;;3.25;;
74074;SDS011;62428;51.412;5.432;2022-12-07T06:38:16;10.90;;;3.57;;
74074;SDS011;62428;51.412;5.432;2022-12-07T06:40:41;4.77;;;2.60;;
74074;SDS011;62428;51.412;5.432;2022-12-07T06:43:07;8.43;;;2.93;;
74074;SDS011;62428;51.412;5.432;2022-12-07T06:45:32;8.18;;;2.97;;
74074;SDS011;62428;51.412;5.432;2022-12-07T06:47:58;10.27;;;2.93;;
74074;SDS011;62428;51.412;5.432;2022-12-07T06:50:23;6.17;;;3.23;;
74074;SDS011;62428;51.412;5.432;2022-12-07T06:52:49;8.57;;;3.80;;
74074;SDS011;62428;51.412;5.432;2022-12-07T06:55:16;7.70;;;3.47;;
74074;SDS011;62428;51.412;5.432;2022-12-07T06:57:41;9.67;;;4.87;;
74074;SDS011;62428;51.412;5.432;2022-12-07T07:00:07;11.13;;;4.22;;
74074;SDS011;62428;51.412;5.432;2022-12-07T07:02:32;9.97;;;4.23;;
74074;SDS011;62428;51.412;5.432;2022-12-07T07:04:58;14.43;;;4.47;;
74074;SDS011;62428;51.412;5.432;2022-12-07T07:07:23;14.00;;;4.95;;
74074;SDS011;62428;51.412;5.432;2022-12-07T07:09:48;7.70;;;4.57;;
74074;SDS011;62428;51.412;5.432;2022-12-07T07:12:14;13.00;;;4.87;;
74074;SDS011;62428;51.412;5.432;2022-12-07T07:14:39;14.43;;;5.30;;
74074;SDS011;62428;51.412;5.432;2022-12-07T07:17:04;10.30;;;5.37;;
74074;SDS011;62428;51.412;5.432;2022-12-07T07:19:30;10.17;;;4.53;;
74074;SDS011;62428;51.412;5.432;2022-12-07T07:21:55;10.87;;;5.37;;
74074;SDS011;62428;51.412;5.432;2022-12-07T07:24:20;9.90;;;5.33;;
74074;SDS011;62428;51.412;5.432;2022-12-07T07:26:46;10.35;;;5.10;;
74074;SDS011;62428;51.412;5.432;2022-12-07T07:29:11;10.93;;;5.50;;
74074;SDS011;62428;51.412;5.432;2022-12-07T07:31:36;9.10;;;5.30;;
74074;SDS011;62428;51.412;5.432;2022-12-07T07:34:02;12.67;;;6.80;;
74074;SDS011;62428;51.412;5.432;2022-12-07T07:36:27;11.70;;;6.60;;
74074;SDS011;62428;51.412;5.432;2022-12-07T07:38:53;17.93;;;6.30;;
74074;SDS011;62428;51.412;5.432;2022-12-07T07:41:18;11.95;;;5.93;;
74074;SDS011;62428;51.412;5.432;2022-12-07T07:43:43;13.25;;;6.75;;
74074;SDS011;62428;51.412;5.432;2022-12-07T07:46:09;14.87;;;6.80;;
74074;SDS011;62428;51.412;5.432;2022-12-07T07:48:34;12.90;;;6.27;;
74074;SDS011;62428;51.412;5.432;2022-12-07T07:50:59;14.67;;;6.70;;
74074;SDS011;62428;51.412;5.432;2022-12-07T07:53:25;16.20;;;7.07;;
74074;SDS011;62428;51.412;5.432;2022-12-07T07:55:51;17.73;;;6.20;;
74074;SDS011;62428;51.412;5.432;2022-12-07T07:58:17;16.05;;;6.60;;
74074;SDS011;62428;51.412;5.432;2022-12-07T08:00:42;17.77;;;8.00;;
74074;SDS011;62428;51.412;5.432;2022-12-07T08:03:08;18.57;;;7.37;;
74074;SDS011;62428;51.412;5.432;2022-12-07T08:05:33;14.80;;;7.30;;
74074;SDS011;62428;51.412;5.432;2022-12-07T08:07:58;18.13;;;7.27;;
74074;SDS011;62428;51.412;5.432;2022-12-07T08:10:24;16.58;;;6.75;;
74074;SDS011;62428;51.412;5.432;2022-12-07T08:12:49;15.90;;;6.57;;
74074;SDS011;62428;51.412;5.432;2022-12-07T08:15:33;11.45;;;6.20;;
74074;SDS011;62428;51.412;5.432;2022-12-07T08:18:02;17.10;;;5.73;;
74074;SDS011;62428;51.412;5.432;2022-12-07T08:20:29;16.20;;;5.38;;
74074;SDS011;62428;51.412;5.432;2022-12-07T08:22:55;12.53;;;5.97;;
74074;SDS011;62428;51.412;5.432;2022-12-07T08:25:20;11.87;;;5.37;;
74074;SDS011;62428;51.412;5.432;2022-12-07T08:27:47;11.35;;;5.20;;
74074;SDS011;62428;51.412;5.432;2022-12-07T08:30:13;11.68;;;5.40;;
74074;SDS011;62428;51.412;5.432;2022-12-07T08:32:38;10.77;;;5.70;;
74074;SDS011;62428;51.412;5.432;2022-12-07T08:35:04;10.60;;;5.13;;
74074;SDS011;62428;51.412;5.432;2022-12-07T08:37:31;13.50;;;5.57;;
74074;SDS011;62428;51.412;5.432;2022-12-07T08:39:56;14.98;;;6.63;;
74074;SDS011;62428;51.412;5.432;2022-12-07T08:42:21;17.73;;;7.73;;
74074;SDS011;62428;51.412;5.432;2022-12-07T08:44:48;17.05;;;7.47;;
74074;SDS011;62428;51.412;5.432;2022-12-07T08:47:13;15.97;;;8.10;;
74074;SDS011;62428;51.412;5.432;2022-12-07T08:49:39;15.15;;;7.10;;
74074;SDS011;62428;51.412;5.432;2022-12-07T08:52:09;11.50;;;6.25;;
74074;SDS011;62428;51.412;5.432;2022-12-07T08:54:36;11.53;;;6.40;;
74074;SDS011;62428;51.412;5.432;2022-12-07T08:57:07;15.43;;;6.10;;
74074;SDS011;62428;51.412;5.432;2022-12-07T08:59:34;12.40;;;6.07;;
74074;SDS011;62428;51.412;5.432;2022-12-07T09:02:00;12.40;;;5.50;;
74074;SDS011;62428;51.412;5.432;2022-12-07T09:04:26;16.50;;;5.63;;
74074;SDS011;62428;51.412;5.432;2022-12-07T09:06:53;13.40;;;6.10;;
74074;SDS011;62428;51.412;5.432;2022-12-07T09:09:19;12.35;;;5.55;;
74074;SDS011;62428;51.412;5.432;2022-12-07T09:11:44;13.70;;;6.13;;
74074;SDS011;62428;51.412;5.432;2022-12-07T09:14:10;14.00;;;6.93;;
74074;SDS011;62428;51.412;5.432;2022-12-07T09:16:35;14.77;;;7.38;;
74074;SDS011;62428;51.412;5.432;2022-12-07T09:19:01;15.63;;;8.30;;
74074;SDS011;62428;51.412;5.432;2022-12-07T09:21:26;19.30;;;7.57;;
74074;SDS011;62428;51.412;5.432;2022-12-07T09:23:52;13.33;;;6.57;;
74074;SDS011;62428;51.412;5.432;2022-12-07T09:26:17;19.75;;;7.13;;
74074;SDS011;62428;51.412;5.432;2022-12-07T09:28:42;12.98;;;5.88;;
74074;SDS011;62428;51.412;5.432;2022-12-07T09:31:08;14.53;;;5.47;;
74074;SDS011;62428;51.412;5.432;2022-12-07T09:33:33;12.77;;;5.70;;
74074;SDS011;62428;51.412;5.432;2022-12-07T09:35:58;14.73;;;6.30;;
74074;SDS011;62428;51.412;5.432;2022-12-07T09:38:24;11.37;;;4.83;;
74074;SDS011;62428;51.412;5.432;2022-12-07T09:40:51;10.45;;;4.22;;
74074;SDS011;62428;51.412;5.432;2022-12-07T09:43:20;10.40;;;4.57;;
74074;SDS011;62428;51.412;5.432;2022-12-07T09:45:49;10.63;;;4.67;;
74074;SDS011;62428;51.412;5.432;2022-12-07T09:48:20;8.80;;;4.40;;
74074;SDS011;62428;51.412;5.432;2022-12-07T09:50:47;13.07;;;4.40;;
74074;SDS011;62428;51.412;5.432;2022-12-07T09:53:20;11.27;;;4.32;;
74074;SDS011;62428;51.412;5.432;2022-12-07T09:55:50;11.07;;;4.20;;
74074;SDS011;62428;51.412;5.432;2022-12-07T09:58:26;9.10;;;4.27;;
74074;SDS011;62428;51.412;5.432;2022-12-07T10:00:55;9.02;;;4.18;;
74074;SDS011;62428;51.412;5.432;2022-12-07T10:03:26;21.17;;;4.78;;
74074;SDS011;62428;51.412;5.432;2022-12-07T10:05:53;6.25;;;3.67;;
74074;SDS011;62428;51.412;5.432;2022-12-07T10:08:19;10.97;;;4.10;;
74074;SDS011;62428;51.412;5.432;2022-12-07T10:10:45;13.48;;;4.22;;
74074;SDS011;62428;51.412;5.432;2022-12-07T10:13:18;9.30;;;3.90;;
74074;SDS011;62428;51.412;5.432;2022-12-07T10:15:54;12.25;;;3.38;;
74074;SDS011;62428;51.412;5.432;2022-12-07T10:23:38;11.23;;;3.83;;
74074;SDS011;62428;51.412;5.432;2022-12-07T10:26:38;8.30;;;3.33;;
74074;SDS011;62428;51.412;5.432;2022-12-07T10:29:25;8.32;;;3.15;;
74074;SDS011;62428;51.412;5.432;2022-12-07T10:31:59;6.97;;;3.03;;
74074;SDS011;62428;51.412;5.432;2022-12-07T10:34:50;10.85;;;2.83;;
74074;SDS011;62428;51.412;5.432;2022-12-07T10:37:18;8.20;;;2.40;;
74074;SDS011;62428;51.412;5.432;2022-12-07T10:42:19;15.65;;;3.28;;
74074;SDS011;62428;51.412;5.432;2022-12-07T10:44:47;7.63;;;2.80;;
74074;SDS011;62428;51.412;5.432;2022-12-07T11:07:22;11.75;;;3.40;;
74074;SDS011;62428;51.412;5.432;2022-12-07T11:17:56;6.17;;;2.23;;
74074;SDS011;62428;51.412;5.432;2022-12-07T11:29:15;9.60;;;2.67;;
74074;SDS011;62428;51.412;5.432;2022-12-07T11:32:09;7.78;;;2.20;;
74074;SDS011;62428;51.412;5.432;2022-12-07T11:37:36;7.75;;;2.17;;
74074;SDS011;62428;51.412;5.432;2022-12-07T11:40:05;12.07;;;2.70;;
74074;SDS011;62428;51.412;5.432;2022-12-07T11:42:58;6.20;;;1.90;;
74074;SDS011;62428;51.412;5.432;2022-12-07T11:45:27;7.10;;;1.90;;
74074;SDS011;62428;51.412;5.432;2022-12-07T11:55:53;6.68;;;1.40;;
74074;SDS011;62428;51.412;5.432;2022-12-07T12:01:13;6.85;;;1.30;;
74074;SDS011;62428;51.412;5.432;2022-12-07T12:03:49;8.45;;;1.52;;
74074;SDS011;62428;51.412;5.432;2022-12-07T12:06:18;6.00;;;1.50;;
74074;SDS011;62428;51.412;5.432;2022-12-07T12:21:29;5.88;;;0.88;;
74074;SDS011;62428;51.412;5.432;2022-12-07T12:23:56;6.80;;;1.03;;
74074;SDS011;62428;51.412;5.432;2022-12-07T12:26:29;10.13;;;1.27;;
74074;SDS011;62428;51.412;5.432;2022-12-07T12:29:00;4.30;;;0.95;;
74074;SDS011;62428;51.412;5.432;2022-12-07T12:31:31;5.93;;;0.93;;
74074;SDS011;62428;51.412;5.432;2022-12-07T12:34:29;8.50;;;0.95;;
74074;SDS011;62428;51.412;5.432;2022-12-07T12:36:58;3.93;;;1.10;;
74074;SDS011;62428;51.412;5.432;2022-12-07T12:39:24;8.52;;;1.23;;
74074;SDS011;62428;51.412;5.432;2022-12-07T12:41:51;4.97;;;1.20;;
74074;SDS011;62428;51.412;5.432;2022-12-07T12:44:38;8.52;;;1.33;;
74074;SDS011;62428;51.412;5.432;2022-12-07T12:47:38;4.72;;;0.93;;
74074;SDS011;62428;51.412;5.432;2022-12-07T12:50:20;9.07;;;1.40;;
74074;SDS011;62428;51.412;5.432;2022-12-07T12:53:00;8.10;;;1.75;;
74074;SDS011;62428;51.412;5.432;2022-12-07T12:55:44;8.10;;;1.00;;
74074;SDS011;62428;51.412;5.432;2022-12-07T13:00:49;5.23;;;0.50;;
74074;SDS011;62428;51.412;5.432;2022-12-07T13:03:52;4.65;;;0.60;;
74074;SDS011;62428;51.412;5.432;2022-12-07T13:06:28;6.75;;;0.75;;
74074;SDS011;62428;51.412;5.432;2022-12-07T13:09:00;4.20;;;0.87;;
74074;SDS011;62428;51.412;5.432;2022-12-07T13:17:09;4.18;;;0.93;;
74074;SDS011;62428;51.412;5.432;2022-12-07T13:24:56;8.68;;;1.30;;
74074;SDS011;62428;51.412;5.432;2022-12-07T13:27:40;7.28;;;1.63;;
74074;SDS011;62428;51.412;5.432;2022-12-07T13:30:19;5.18;;;1.00;;
74074;SDS011;62428;51.412;5.432;2022-12-07T13:32:55;7.32;;;1.77;;
74074;SDS011;62428;51.412;5.432;2022-12-07T13:35:29;6.33;;;1.70;;
74074;SDS011;62428;51.412;5.432;2022-12-07T13:38:00;10.68;;;1.35;;
74074;SDS011;62428;51.412;5.432;2022-12-07T13:40:29;6.13;;;1.20;;
74074;SDS011;62428;51.412;5.432;2022-12-07T13:42:58;4.70;;;0.87;;
74074;SDS011;62428;51.412;5.432;2022-12-07T13:45:29;6.43;;;0.80;;
74074;SDS011;62428;51.412;5.432;2022-12-07T13:48:16;6.13;;;0.98;;
74074;SDS011;62428;51.412;5.432;2022-12-07T13:50:54;4.05;;;0.70;;
74074;SDS011;62428;51.412;5.432;2022-12-07T13:53:23;7.87;;;1.00;;
74074;SDS011;62428;51.412;5.432;2022-12-07T13:55:49;5.60;;;1.45;;
74074;SDS011;62428;51.412;5.432;2022-12-07T13:58:15;9.50;;;1.70;;
74074;SDS011;62428;51.412;5.432;2022-12-07T14:00:42;9.97;;;2.10;;
74074;SDS011;62428;51.412;5.432;2022-12-07T14:05:36;8.00;;;2.53;;
74074;SDS011;62428;51.412;5.432;2022-12-07T14:08:04;7.63;;;1.95;;
74074;SDS011;62428;51.412;5.432;2022-12-07T14:13:56;5.63;;;1.37;;
74074;SDS011;62428;51.412;5.432;2022-12-07T14:16:22;4.30;;;1.40;;
74074;SDS011;62428;51.412;5.432;2022-12-07T14:18:50;5.82;;;1.17;;
74074;SDS011;62428;51.412;5.432;2022-12-07T14:21:17;4.93;;;1.55;;
74074;SDS011;62428;51.412;5.432;2022-12-07T14:26:43;5.97;;;1.50;;
74074;SDS011;62428;51.412;5.432;2022-12-07T14:29:20;7.40;;;1.50;;
74074;SDS011;62428;51.412;5.432;2022-12-07T14:31:53;8.10;;;1.35;;
74074;SDS011;62428;51.412;5.432;2022-12-07T14:34:20;6.57;;;1.52;;
74074;SDS011;62428;51.412;5.432;2022-12-07T14:36:46;5.27;;;1.40;;
74074;SDS011;62428;51.412;5.432;2022-12-07T14:39:12;4.82;;;1.40;;
74074;SDS011;62428;51.412;5.432;2022-12-07T14:41:37;8.30;;;1.57;;
74074;SDS011;62428;51.412;5.432;2022-12-07T14:44:15;6.82;;;1.50;;
74074;SDS011;62428;51.412;5.432;2022-12-07T14:46:41;8.10;;;1.50;;
74074;SDS011;62428;51.412;5.432;2022-12-07T14:49:06;4.37;;;1.30;;
74074;SDS011;62428;51.412;5.432;2022-12-07T14:51:31;5.37;;;1.10;;
74074;SDS011;62428;51.412;5.432;2022-12-07T14:53:58;6.93;;;1.33;;
74074;SDS011;62428;51.412;5.432;2022-12-07T14:56:24;10.05;;;1.42;;
74074;SDS011;62428;51.412;5.432;2022-12-07T14:58:50;4.25;;;1.50;;
74074;SDS011;62428;51.412;5.432;2022-12-07T15:01:16;5.37;;;1.67;;
74074;SDS011;62428;51.412;5.432;2022-12-07T15:03:41;3.50;;;1.60;;
74074;SDS011;62428;51.412;5.432;2022-12-07T15:06:06;4.57;;;1.40;;
74074;SDS011;62428;51.412;5.432;2022-12-07T15:08:32;4.40;;;1.50;;
74074;SDS011;62428;51.412;5.432;2022-12-07T15:10:57;7.32;;;2.35;;
74074;SDS011;62428;51.412;5.432;2022-12-07T15:13:23;4.50;;;2.07;;
74074;SDS011;62428;51.412;5.432;2022-12-07T15:16:08;4.82;;;1.52;;
74074;SDS011;62428;51.412;5.432;2022-12-07T15:18:36;5.27;;;1.70;;
74074;SDS011;62428;51.412;5.432;2022-12-07T15:21:01;6.75;;;1.52;;
74074;SDS011;62428;51.412;5.432;2022-12-07T15:23:26;6.57;;;1.47;;
74074;SDS011;62428;51.412;5.432;2022-12-07T15:25:52;3.03;;;0.87;;
74074;SDS011;62428;51.412;5.432;2022-12-07T15:28:17;4.80;;;1.37;;
74074;SDS011;62428;51.412;5.432;2022-12-07T15:30:43;4.00;;;1.37;;
74074;SDS011;62428;51.412;5.432;2022-12-07T15:33:09;3.63;;;1.08;;
74074;SDS011;62428;51.412;5.432;2022-12-07T15:35:40;4.90;;;1.58;;
74074;SDS011;62428;51.412;5.432;2022-12-07T15:38:07;6.95;;;1.10;;
74074;SDS011;62428;51.412;5.432;2022-12-07T15:40:33;6.15;;;0.90;;
74074;SDS011;62428;51.412;5.432;2022-12-07T15:42:59;2.95;;;0.73;;
74074;SDS011;62428;51.412;5.432;2022-12-07T15:45:25;4.53;;;1.50;;
74074;SDS011;62428;51.412;5.432;2022-12-07T15:47:50;4.80;;;1.77;;
74074;SDS011;62428;51.412;5.432;2022-12-07T15:50:16;8.50;;;2.60;;
74074;SDS011;62428;51.412;5.432;2022-12-07T15:52:42;6.45;;;2.65;;
74074;SDS011;62428;51.412;5.432;2022-12-07T15:55:08;3.78;;;1.70;;
74074;SDS011;62428;51.412;5.432;2022-12-07T15:57:35;6.10;;;2.50;;
74074;SDS011;62428;51.412;5.432;2022-12-07T16:00:02;6.35;;;2.50;;
74074;SDS011;62428;51.412;5.432;2022-12-07T16:02:30;7.45;;;3.20;;
74074;SDS011;62428;51.412;5.432;2022-12-07T16:04:56;8.47;;;2.90;;
74074;SDS011;62428;51.412;5.432;2022-12-07T16:07:21;5.67;;;2.67;;
74074;SDS011;62428;51.412;5.432;2022-12-07T16:09:47;4.57;;;2.40;;
74074;SDS011;62428;51.412;5.432;2022-12-07T16:12:14;9.15;;;2.40;;
74074;SDS011;62428;51.412;5.432;2022-12-07T16:14:40;7.03;;;2.50;;
74074;SDS011;62428;51.412;5.432;2022-12-07T16:17:06;7.23;;;2.63;;
74074;SDS011;62428;51.412;5.432;2022-12-07T16:19:32;4.50;;;2.00;;
74074;SDS011;62428;51.412;5.432;2022-12-07T16:21:58;5.45;;;1.88;;
74074;SDS011;62428;51.412;5.432;2022-12-07T16:24:24;6.93;;;1.70;;
74074;SDS011;62428;51.412;5.432;2022-12-07T16:26:50;8.18;;;1.60;;
74074;SDS011;62428;51.412;5.432;2022-12-07T16:29:15;6.17;;;1.60;;
74074;SDS011;62428;51.412;5.432;2022-12-07T16:31:41;8.50;;;1.95;;
74074;SDS011;62428;51.412;5.432;2022-12-07T16:34:08;9.97;;;2.23;;
74074;SDS011;62428;51.412;5.432;2022-12-07T16:36:33;5.88;;;2.63;;
74074;SDS011;62428;51.412;5.432;2022-12-07T16:39:00;7.03;;;3.00;;
74074;SDS011;62428;51.412;5.432;2022-12-07T16:41:26;8.10;;;3.47;;
74074;SDS011;62428;51.412;5.432;2022-12-07T16:43:51;5.33;;;3.57;;
74074;SDS011;62428;51.412;5.432;2022-12-07T16:46:17;10.43;;;3.30;;
74074;SDS011;62428;51.412;5.432;2022-12-07T16:48:43;5.78;;;2.47;;
74074;SDS011;62428;51.412;5.432;2022-12-07T16:51:09;6.83;;;2.47;;
74074;SDS011;62428;51.412;5.432;2022-12-07T16:53:35;5.05;;;2.38;;
74074;SDS011;62428;51.412;5.432;2022-12-07T16:56:02;10.63;;;2.37;;
74074;SDS011;62428;51.412;5.432;2022-12-07T16:58:28;5.53;;;2.20;;
74074;SDS011;62428;51.412;5.432;2022-12-07T17:00:53;6.17;;;2.00;;